sensor_id;sensor_type;location;lat;lon;timestamp;P1;durP1;ratioP1;P2;durP2;ratioP2
19671;SDS011;9983;51.114;13.788;2023-04-01T00:00:21;2.70;;;1.02;;
19671;SDS011;9983;51.114;13.788;2023-04-01T00:05:21;2.77;;;1.00;;
19671;SDS011;9983;51.114;13.788;2023-04-01T00:10:21;1.88;;;0.75;;
19671;SDS011;9983;51.114;13.788;2023-04-01T00:15:22;1.95;;;0.95;;
19671;SDS011;9983;51.114;13.788;2023-04-01T00:20:22;6.75;;;1.08;;
19671;SDS011;9983;51.114;13.788;2023-04-01T00:25:22;3.03;;;1.10;;
19671;SDS011;9983;51.114;13.788;2023-04-01T00:30:23;2.95;;;1.25;;
19671;SDS011;9983;51.114;13.788;2023-04-01T00:35:23;4.65;;;1.10;;
19671;SDS011;9983;51.114;13.788;2023-04-01T00:40:26;1.48;;;0.90;;
19671;SDS011;9983;51.114;13.788;2023-04-01T00:45:36;4.10;;;1.00;;
19671;SDS011;9983;51.114;13.788;2023-04-01T00:50:39;1.88;;;0.85;;
19671;SDS011;9983;51.114;13.788;2023-04-01T00:55:43;5.10;;;0.90;;
19671;SDS011;9983;51.114;13.788;2023-04-01T01:00:50;2.85;;;0.80;;
19671;SDS011;9983;51.114;13.788;2023-04-01T01:06:35;1.42;;;0.95;;
19671;SDS011;9983;51.114;13.788;2023-04-01T01:11:36;2.08;;;0.80;;
19671;SDS011;9983;51.114;13.788;2023-04-01T01:16:50;1.13;;;0.85;;
19671;SDS011;9983;51.114;13.788;2023-04-01T01:22:03;2.83;;;1.05;;
19671;SDS011;9983;51.114;13.788;2023-04-01T01:27:26;3.20;;;1.00;;
19671;SDS011;9983;51.114;13.788;2023-04-01T01:37:50;1.95;;;0.93;;
19671;SDS011;9983;51.114;13.788;2023-04-01T01:42:54;0.93;;;0.80;;
19671;SDS011;9983;51.114;13.788;2023-04-01T01:47:59;3.75;;;1.15;;
19671;SDS011;9983;51.114;13.788;2023-04-01T01:53:03;3.00;;;0.90;;
19671;SDS011;9983;51.114;13.788;2023-04-01T01:58:07;2.08;;;0.95;;
19671;SDS011;9983;51.114;13.788;2023-04-01T02:03:13;1.20;;;0.75;;
19671;SDS011;9983;51.114;13.788;2023-04-01T02:08:16;1.98;;;0.70;;
19671;SDS011;9983;51.114;13.788;2023-04-01T02:13:24;1.95;;;1.10;;
19671;SDS011;9983;51.114;13.788;2023-04-01T02:18:30;2.17;;;0.93;;
19671;SDS011;9983;51.114;13.788;2023-04-01T02:23:35;2.97;;;0.80;;
19671;SDS011;9983;51.114;13.788;2023-04-01T02:28:36;1.85;;;0.70;;
19671;SDS011;9983;51.114;13.788;2023-04-01T02:33:38;2.47;;;0.90;;
19671;SDS011;9983;51.114;13.788;2023-04-01T02:38:42;2.35;;;1.20;;
19671;SDS011;9983;51.114;13.788;2023-04-01T02:43:44;3.92;;;1.20;;
19671;SDS011;9983;51.114;13.788;2023-04-01T02:48:44;1.13;;;0.80;;
19671;SDS011;9983;51.114;13.788;2023-04-01T02:53:44;1.15;;;0.88;;
19671;SDS011;9983;51.114;13.788;2023-04-01T02:58:45;6.40;;;1.40;;
19671;SDS011;9983;51.114;13.788;2023-04-01T03:03:46;2.42;;;1.02;;
19671;SDS011;9983;51.114;13.788;2023-04-01T03:08:46;2.50;;;1.27;;
19671;SDS011;9983;51.114;13.788;2023-04-01T03:13:46;2.53;;;1.20;;
19671;SDS011;9983;51.114;13.788;2023-04-01T03:18:47;2.92;;;0.90;;
19671;SDS011;9983;51.114;13.788;2023-04-01T03:23:49;2.50;;;1.25;;
19671;SDS011;9983;51.114;13.788;2023-04-01T03:28:49;1.50;;;0.75;;
19671;SDS011;9983;51.114;13.788;2023-04-01T03:33:50;2.75;;;1.10;;
19671;SDS011;9983;51.114;13.788;2023-04-01T03:38:50;2.38;;;0.95;;
19671;SDS011;9983;51.114;13.788;2023-04-01T03:43:50;2.60;;;1.15;;
19671;SDS011;9983;51.114;13.788;2023-04-01T03:48:51;2.97;;;1.00;;
19671;SDS011;9983;51.114;13.788;2023-04-01T03:53:51;1.98;;;0.88;;
19671;SDS011;9983;51.114;13.788;2023-04-01T03:58:51;3.42;;;1.20;;
19671;SDS011;9983;51.114;13.788;2023-04-01T04:03:51;2.50;;;0.90;;
19671;SDS011;9983;51.114;13.788;2023-04-01T04:08:52;3.00;;;0.93;;
19671;SDS011;9983;51.114;13.788;2023-04-01T04:13:53;2.55;;;1.13;;
19671;SDS011;9983;51.114;13.788;2023-04-01T04:18:53;3.42;;;1.23;;
19671;SDS011;9983;51.114;13.788;2023-04-01T04:23:53;2.17;;;0.70;;
19671;SDS011;9983;51.114;13.788;2023-04-01T04:28:54;1.45;;;1.10;;
19671;SDS011;9983;51.114;13.788;2023-04-01T04:33:54;3.17;;;1.00;;
19671;SDS011;9983;51.114;13.788;2023-04-01T04:38:55;2.03;;;1.00;;
19671;SDS011;9983;51.114;13.788;2023-04-01T04:43:56;3.08;;;1.02;;
19671;SDS011;9983;51.114;13.788;2023-04-01T04:48:56;4.47;;;1.00;;
19671;SDS011;9983;51.114;13.788;2023-04-01T04:53:57;3.08;;;1.42;;
19671;SDS011;9983;51.114;13.788;2023-04-01T04:58:57;1.55;;;0.85;;
19671;SDS011;9983;51.114;13.788;2023-04-01T05:03:58;1.02;;;0.80;;
19671;SDS011;9983;51.114;13.788;2023-04-01T05:08:59;1.30;;;0.73;;
19671;SDS011;9983;51.114;13.788;2023-04-01T05:13:59;2.67;;;1.25;;
19671;SDS011;9983;51.114;13.788;2023-04-01T05:18:59;3.97;;;1.50;;
19671;SDS011;9983;51.114;13.788;2023-04-01T05:24:00;1.13;;;0.93;;
19671;SDS011;9983;51.114;13.788;2023-04-01T05:29:00;1.55;;;1.00;;
19671;SDS011;9983;51.114;13.788;2023-04-01T05:34:00;2.78;;;1.70;;
19671;SDS011;9983;51.114;13.788;2023-04-01T05:39:01;2.33;;;1.00;;
19671;SDS011;9983;51.114;13.788;2023-04-01T05:44:01;4.00;;;1.45;;
19671;SDS011;9983;51.114;13.788;2023-04-01T05:49:02;1.55;;;1.10;;
19671;SDS011;9983;51.114;13.788;2023-04-01T05:54:04;1.50;;;0.90;;
19671;SDS011;9983;51.114;13.788;2023-04-01T05:59:05;2.30;;;0.98;;
19671;SDS011;9983;51.114;13.788;2023-04-01T06:04:05;3.88;;;1.67;;
19671;SDS011;9983;51.114;13.788;2023-04-01T06:09:16;1.23;;;0.77;;
19671;SDS011;9983;51.114;13.788;2023-04-01T06:14:33;1.80;;;1.05;;
19671;SDS011;9983;51.114;13.788;2023-04-01T06:30:10;2.50;;;1.10;;
19671;SDS011;9983;51.114;13.788;2023-04-01T06:46:29;3.25;;;1.20;;
19671;SDS011;9983;51.114;13.788;2023-04-01T06:51:53;3.03;;;1.23;;
19671;SDS011;9983;51.114;13.788;2023-04-01T06:57:25;2.55;;;1.20;;
19671;SDS011;9983;51.114;13.788;2023-04-01T07:02:43;2.45;;;1.17;;
19671;SDS011;9983;51.114;13.788;2023-04-01T07:07:53;3.00;;;0.93;;
19671;SDS011;9983;51.114;13.788;2023-04-01T07:12:58;2.53;;;1.35;;
19671;SDS011;9983;51.114;13.788;2023-04-01T07:18:03;3.00;;;1.40;;
19671;SDS011;9983;51.114;13.788;2023-04-01T07:23:26;1.20;;;0.80;;
19671;SDS011;9983;51.114;13.788;2023-04-01T07:28:32;3.97;;;1.20;;
19671;SDS011;9983;51.114;13.788;2023-04-01T07:44:18;0.55;;;0.55;;
19671;SDS011;9983;51.114;13.788;2023-04-01T07:55:23;1.48;;;0.77;;
19671;SDS011;9983;51.114;13.788;2023-04-01T08:05:59;1.38;;;0.38;;
19671;SDS011;9983;51.114;13.788;2023-04-01T08:11:12;1.90;;;0.70;;
19671;SDS011;9983;51.114;13.788;2023-04-01T08:17:01;1.83;;;0.88;;
19671;SDS011;9983;51.114;13.788;2023-04-01T08:22:12;2.30;;;0.90;;
19671;SDS011;9983;51.114;13.788;2023-04-01T08:27:23;3.00;;;0.68;;
19671;SDS011;9983;51.114;13.788;2023-04-01T08:37:38;0.75;;;0.60;;
19671;SDS011;9983;51.114;13.788;2023-04-01T08:42:45;1.90;;;0.90;;
19671;SDS011;9983;51.114;13.788;2023-04-01T09:10:43;1.77;;;0.70;;
19671;SDS011;9983;51.114;13.788;2023-04-01T09:15:57;1.77;;;1.00;;
19671;SDS011;9983;51.114;13.788;2023-04-01T09:37:31;1.35;;;1.20;;
19671;SDS011;9983;51.114;13.788;2023-04-01T09:42:43;0.80;;;0.63;;
19671;SDS011;9983;51.114;13.788;2023-04-01T09:53:40;1.25;;;0.70;;
19671;SDS011;9983;51.114;13.788;2023-04-01T10:25:53;1.08;;;0.63;;
19671;SDS011;9983;51.114;13.788;2023-04-01T10:31:27;0.73;;;0.55;;
19671;SDS011;9983;51.114;13.788;2023-04-01T10:36:48;1.23;;;0.73;;
19671;SDS011;9983;51.114;13.788;2023-04-01T10:47:06;2.13;;;0.73;;
19671;SDS011;9983;51.114;13.788;2023-04-01T11:25:38;1.27;;;0.95;;
19671;SDS011;9983;51.114;13.788;2023-04-01T11:30:40;0.82;;;0.82;;
19671;SDS011;9983;51.114;13.788;2023-04-01T11:47:10;0.73;;;0.65;;
19671;SDS011;9983;51.114;13.788;2023-04-01T11:52:32;1.13;;;0.85;;
19671;SDS011;9983;51.114;13.788;2023-04-01T12:03:41;1.17;;;0.82;;
19671;SDS011;9983;51.114;13.788;2023-04-01T12:09:12;1.38;;;0.90;;
19671;SDS011;9983;51.114;13.788;2023-04-01T12:14:34;1.95;;;0.98;;
19671;SDS011;9983;51.114;13.788;2023-04-01T12:19:54;0.40;;;0.40;;
19671;SDS011;9983;51.114;13.788;2023-04-01T12:30:37;0.52;;;0.50;;
19671;SDS011;9983;51.114;13.788;2023-04-01T12:36:08;0.20;;;0.20;;
19671;SDS011;9983;51.114;13.788;2023-04-01T12:52:10;0.30;;;0.30;;
19671;SDS011;9983;51.114;13.788;2023-04-01T12:57:22;0.57;;;0.50;;
19671;SDS011;9983;51.114;13.788;2023-04-01T13:02:40;0.20;;;0.20;;
19671;SDS011;9983;51.114;13.788;2023-04-01T13:18:35;0.95;;;0.30;;
19671;SDS011;9983;51.114;13.788;2023-04-01T13:29:31;2.25;;;0.80;;
19671;SDS011;9983;51.114;13.788;2023-04-01T13:34:46;1.50;;;0.60;;
19671;SDS011;9983;51.114;13.788;2023-04-01T13:39:57;0.60;;;0.60;;
19671;SDS011;9983;51.114;13.788;2023-04-01T13:45:23;0.73;;;0.57;;
19671;SDS011;9983;51.114;13.788;2023-04-01T13:55:53;0.52;;;0.40;;
19671;SDS011;9983;51.114;13.788;2023-04-01T14:01:05;0.85;;;0.70;;
19671;SDS011;9983;51.114;13.788;2023-04-01T14:06:47;0.40;;;0.40;;
19671;SDS011;9983;51.114;13.788;2023-04-01T14:12:04;0.52;;;0.52;;
19671;SDS011;9983;51.114;13.788;2023-04-01T14:17:43;0.77;;;0.43;;
19671;SDS011;9983;51.114;13.788;2023-04-01T14:28:16;1.23;;;0.50;;
19671;SDS011;9983;51.114;13.788;2023-04-01T14:33:36;0.57;;;0.57;;
19671;SDS011;9983;51.114;13.788;2023-04-01T14:39:00;0.47;;;0.47;;
19671;SDS011;9983;51.114;13.788;2023-04-01T14:50:21;0.63;;;0.63;;
19671;SDS011;9983;51.114;13.788;2023-04-01T15:00:39;0.73;;;0.73;;
19671;SDS011;9983;51.114;13.788;2023-04-01T15:17:02;0.60;;;0.40;;
19671;SDS011;9983;51.114;13.788;2023-04-01T15:38:42;0.32;;;0.20;;
19671;SDS011;9983;51.114;13.788;2023-04-01T15:43:49;0.30;;;0.30;;
19671;SDS011;9983;51.114;13.788;2023-04-01T16:15:59;0.55;;;0.43;;
19671;SDS011;9983;51.114;13.788;2023-04-01T16:21:10;0.40;;;0.40;;
19671;SDS011;9983;51.114;13.788;2023-04-01T16:32:11;0.85;;;0.85;;
19671;SDS011;9983;51.114;13.788;2023-04-01T16:37:20;1.33;;;0.70;;
19671;SDS011;9983;51.114;13.788;2023-04-01T16:42:47;0.60;;;0.60;;
19671;SDS011;9983;51.114;13.788;2023-04-01T16:47:56;1.10;;;0.63;;
19671;SDS011;9983;51.114;13.788;2023-04-01T16:53:16;0.63;;;0.63;;
19671;SDS011;9983;51.114;13.788;2023-04-01T16:58:25;0.82;;;0.60;;
19671;SDS011;9983;51.114;13.788;2023-04-01T17:03:36;0.85;;;0.77;;
19671;SDS011;9983;51.114;13.788;2023-04-01T17:08:45;1.58;;;0.85;;
19671;SDS011;9983;51.114;13.788;2023-04-01T17:40:50;0.50;;;0.50;;
19671;SDS011;9983;51.114;13.788;2023-04-01T17:45:54;0.63;;;0.63;;
19671;SDS011;9983;51.114;13.788;2023-04-01T18:12:50;1.83;;;0.70;;
19671;SDS011;9983;51.114;13.788;2023-04-01T18:23:43;0.60;;;0.60;;
19671;SDS011;9983;51.114;13.788;2023-04-01T18:29:31;0.90;;;0.80;;
19671;SDS011;9983;51.114;13.788;2023-04-01T18:40:45;1.08;;;0.70;;
19671;SDS011;9983;51.114;13.788;2023-04-01T18:45:37;0.88;;;0.88;;
19671;SDS011;9983;51.114;13.788;2023-04-01T18:50:47;1.80;;;1.00;;
19671;SDS011;9983;51.114;13.788;2023-04-01T18:55:54;1.55;;;1.45;;
19671;SDS011;9983;51.114;13.788;2023-04-01T19:06:29;1.90;;;1.80;;
19671;SDS011;9983;51.114;13.788;2023-04-01T19:11:37;1.88;;;1.73;;
19671;SDS011;9983;51.114;13.788;2023-04-01T19:38:25;3.75;;;2.92;;
19671;SDS011;9983;51.114;13.788;2023-04-01T19:49:07;2.90;;;2.67;;
19671;SDS011;9983;51.114;13.788;2023-04-01T19:54:17;2.65;;;2.45;;
19671;SDS011;9983;51.114;13.788;2023-04-01T20:05:18;3.35;;;3.05;;
19671;SDS011;9983;51.114;13.788;2023-04-01T20:10:20;3.35;;;2.97;;
19671;SDS011;9983;51.114;13.788;2023-04-01T20:15:34;3.63;;;3.30;;
19671;SDS011;9983;51.114;13.788;2023-04-01T20:20:36;4.22;;;3.83;;
19671;SDS011;9983;51.114;13.788;2023-04-01T20:25:48;3.85;;;3.55;;
19671;SDS011;9983;51.114;13.788;2023-04-01T20:36:31;4.85;;;4.32;;
19671;SDS011;9983;51.114;13.788;2023-04-01T21:02:32;3.58;;;3.20;;
19671;SDS011;9983;51.114;13.788;2023-04-01T21:24:29;2.90;;;2.70;;
19671;SDS011;9983;51.114;13.788;2023-04-01T21:40:28;3.67;;;3.38;;
19671;SDS011;9983;51.114;13.788;2023-04-01T21:57:01;3.47;;;3.17;;
19671;SDS011;9983;51.114;13.788;2023-04-01T22:02:13;3.60;;;3.30;;
19671;SDS011;9983;51.114;13.788;2023-04-01T22:07:37;3.50;;;3.20;;
19671;SDS011;9983;51.114;13.788;2023-04-01T22:12:48;3.55;;;3.25;;
19671;SDS011;9983;51.114;13.788;2023-04-01T22:17:57;4.63;;;3.67;;
19671;SDS011;9983;51.114;13.788;2023-04-01T22:23:08;5.22;;;4.18;;
19671;SDS011;9983;51.114;13.788;2023-04-01T22:28:12;4.20;;;3.80;;
19671;SDS011;9983;51.114;13.788;2023-04-01T22:43:47;6.03;;;5.43;;
19671;SDS011;9983;51.114;13.788;2023-04-01T22:48:49;6.15;;;5.55;;
19671;SDS011;9983;51.114;13.788;2023-04-01T22:59:13;6.35;;;5.43;;
19671;SDS011;9983;51.114;13.788;2023-04-01T23:04:19;5.75;;;5.15;;
19671;SDS011;9983;51.114;13.788;2023-04-01T23:09:23;4.50;;;4.10;;
19671;SDS011;9983;51.114;13.788;2023-04-01T23:14:31;5.25;;;4.70;;
19671;SDS011;9983;51.114;13.788;2023-04-01T23:19:49;4.90;;;4.43;;
19671;SDS011;9983;51.114;13.788;2023-04-01T23:35:50;4.68;;;4.28;;
19671;SDS011;9983;51.114;13.788;2023-04-01T23:40:51;5.03;;;4.32;;
19671;SDS011;9983;51.114;13.788;2023-04-01T23:45:54;5.50;;;5.00;;
19671;SDS011;9983;51.114;13.788;2023-04-01T23:50:56;6.70;;;4.70;;
19671;SDS011;9983;51.114;13.788;2023-04-01T23:55:57;4.95;;;4.50;;
